sensor_id;sensor_type;location;lat;lon;timestamp;P1;durP1;ratioP1;P2;durP2;ratioP2
10535;SDS011;5316;49.538;8.352;2024-01-10T00:01:21;15.10;;;8.77;;
10535;SDS011;5316;49.538;8.352;2024-01-10T00:03:53;15.03;;;9.03;;
10535;SDS011;5316;49.538;8.352;2024-01-10T00:06:19;17.10;;;9.77;;
10535;SDS011;5316;49.538;8.352;2024-01-10T00:08:48;17.00;;;10.20;;
10535;SDS011;5316;49.538;8.352;2024-01-10T00:11:15;21.37;;;10.63;;
10535;SDS011;5316;49.538;8.352;2024-01-10T00:13:42;16.83;;;9.93;;
10535;SDS011;5316;49.538;8.352;2024-01-10T00:16:11;14.67;;;9.40;;
10535;SDS011;5316;49.538;8.352;2024-01-10T00:18:39;17.63;;;9.73;;
10535;SDS011;5316;49.538;8.352;2024-01-10T00:21:07;17.03;;;9.47;;
10535;SDS011;5316;49.538;8.352;2024-01-10T00:23:35;15.93;;;9.60;;
10535;SDS011;5316;49.538;8.352;2024-01-10T00:26:02;14.63;;;9.07;;
10535;SDS011;5316;49.538;8.352;2024-01-10T00:28:29;18.47;;;9.80;;
10535;SDS011;5316;49.538;8.352;2024-01-10T00:30:56;19.90;;;10.33;;
10535;SDS011;5316;49.538;8.352;2024-01-10T00:33:23;17.23;;;9.40;;
10535;SDS011;5316;49.538;8.352;2024-01-10T00:35:50;18.57;;;9.97;;
10535;SDS011;5316;49.538;8.352;2024-01-10T00:38:19;17.27;;;9.63;;
10535;SDS011;5316;49.538;8.352;2024-01-10T00:40:46;17.70;;;9.63;;
10535;SDS011;5316;49.538;8.352;2024-01-10T00:43:13;16.93;;;9.63;;
10535;SDS011;5316;49.538;8.352;2024-01-10T00:45:40;18.07;;;10.10;;
10535;SDS011;5316;49.538;8.352;2024-01-10T00:48:07;17.60;;;10.13;;
10535;SDS011;5316;49.538;8.352;2024-01-10T00:50:34;17.33;;;9.83;;
10535;SDS011;5316;49.538;8.352;2024-01-10T00:53:02;17.83;;;10.40;;
10535;SDS011;5316;49.538;8.352;2024-01-10T00:55:30;17.30;;;10.53;;
10535;SDS011;5316;49.538;8.352;2024-01-10T00:57:57;17.77;;;10.57;;
10535;SDS011;5316;49.538;8.352;2024-01-10T01:00:24;19.17;;;11.50;;
10535;SDS011;5316;49.538;8.352;2024-01-10T01:02:51;21.53;;;11.33;;
10535;SDS011;5316;49.538;8.352;2024-01-10T01:05:18;19.23;;;10.27;;
10535;SDS011;5316;49.538;8.352;2024-01-10T01:07:46;19.13;;;10.47;;
10535;SDS011;5316;49.538;8.352;2024-01-10T01:10:13;18.47;;;11.27;;
10535;SDS011;5316;49.538;8.352;2024-01-10T01:12:41;19.53;;;10.23;;
10535;SDS011;5316;49.538;8.352;2024-01-10T01:15:08;20.87;;;11.63;;
10535;SDS011;5316;49.538;8.352;2024-01-10T01:17:35;21.80;;;12.40;;
10535;SDS011;5316;49.538;8.352;2024-01-10T01:20:02;23.37;;;11.63;;
10535;SDS011;5316;49.538;8.352;2024-01-10T01:22:30;18.60;;;10.80;;
10535;SDS011;5316;49.538;8.352;2024-01-10T01:24:57;18.13;;;10.53;;
10535;SDS011;5316;49.538;8.352;2024-01-10T01:27:24;19.83;;;10.90;;
10535;SDS011;5316;49.538;8.352;2024-01-10T01:29:55;21.10;;;10.83;;
10535;SDS011;5316;49.538;8.352;2024-01-10T01:32:22;17.77;;;11.17;;
10535;SDS011;5316;49.538;8.352;2024-01-10T01:34:50;20.00;;;11.13;;
10535;SDS011;5316;49.538;8.352;2024-01-10T01:37:17;21.20;;;11.60;;
10535;SDS011;5316;49.538;8.352;2024-01-10T01:39:44;20.47;;;10.73;;
10535;SDS011;5316;49.538;8.352;2024-01-10T01:42:11;20.50;;;10.87;;
10535;SDS011;5316;49.538;8.352;2024-01-10T01:44:38;21.03;;;10.70;;
10535;SDS011;5316;49.538;8.352;2024-01-10T01:47:07;19.57;;;11.13;;
10535;SDS011;5316;49.538;8.352;2024-01-10T01:49:34;19.63;;;11.60;;
10535;SDS011;5316;49.538;8.352;2024-01-10T01:52:01;20.00;;;11.30;;
10535;SDS011;5316;49.538;8.352;2024-01-10T01:54:29;19.77;;;11.73;;
10535;SDS011;5316;49.538;8.352;2024-01-10T01:56:59;19.70;;;10.23;;
10535;SDS011;5316;49.538;8.352;2024-01-10T02:03:00;21.63;;;12.00;;
10535;SDS011;5316;49.538;8.352;2024-01-10T02:05:35;19.93;;;12.13;;
10535;SDS011;5316;49.538;8.352;2024-01-10T02:08:40;22.27;;;12.20;;
10535;SDS011;5316;49.538;8.352;2024-01-10T02:14:40;21.10;;;12.00;;
10535;SDS011;5316;49.538;8.352;2024-01-10T02:17:24;21.30;;;12.00;;
10535;SDS011;5316;49.538;8.352;2024-01-10T03:01:09;27.77;;;13.93;;
10535;SDS011;5316;49.538;8.352;2024-01-10T03:03:45;25.23;;;13.10;;
10535;SDS011;5316;49.538;8.352;2024-01-10T03:06:18;22.60;;;12.80;;
10535;SDS011;5316;49.538;8.352;2024-01-10T03:08:48;22.23;;;12.30;;
10535;SDS011;5316;49.538;8.352;2024-01-10T03:11:22;22.10;;;12.00;;
10535;SDS011;5316;49.538;8.352;2024-01-10T03:13:50;22.37;;;12.97;;
10535;SDS011;5316;49.538;8.352;2024-01-10T03:16:19;23.27;;;13.60;;
10535;SDS011;5316;49.538;8.352;2024-01-10T03:18:50;23.83;;;12.50;;
10535;SDS011;5316;49.538;8.352;2024-01-10T03:21:17;21.30;;;11.73;;
10535;SDS011;5316;49.538;8.352;2024-01-10T03:23:49;21.93;;;12.20;;
10535;SDS011;5316;49.538;8.352;2024-01-10T03:26:19;19.00;;;11.70;;
10535;SDS011;5316;49.538;8.352;2024-01-10T03:28:46;20.27;;;11.87;;
10535;SDS011;5316;49.538;8.352;2024-01-10T03:31:24;22.57;;;13.33;;
10535;SDS011;5316;49.538;8.352;2024-01-10T03:33:51;26.83;;;13.53;;
10535;SDS011;5316;49.538;8.352;2024-01-10T03:36:19;24.03;;;12.97;;
10535;SDS011;5316;49.538;8.352;2024-01-10T03:38:46;23.23;;;13.30;;
10535;SDS011;5316;49.538;8.352;2024-01-10T03:41:13;23.90;;;13.10;;
10535;SDS011;5316;49.538;8.352;2024-01-10T03:43:40;23.07;;;12.23;;
10535;SDS011;5316;49.538;8.352;2024-01-10T03:46:11;21.87;;;12.73;;
10535;SDS011;5316;49.538;8.352;2024-01-10T03:48:40;22.47;;;12.90;;
10535;SDS011;5316;49.538;8.352;2024-01-10T03:51:12;25.47;;;13.13;;
10535;SDS011;5316;49.538;8.352;2024-01-10T03:53:39;24.83;;;13.43;;
10535;SDS011;5316;49.538;8.352;2024-01-10T03:56:07;22.30;;;12.43;;
10535;SDS011;5316;49.538;8.352;2024-01-10T03:58:37;23.33;;;12.47;;
10535;SDS011;5316;49.538;8.352;2024-01-10T04:01:04;26.83;;;13.70;;
10535;SDS011;5316;49.538;8.352;2024-01-10T04:03:32;23.33;;;13.37;;
10535;SDS011;5316;49.538;8.352;2024-01-10T04:06:09;21.67;;;12.83;;
10535;SDS011;5316;49.538;8.352;2024-01-10T04:08:42;22.50;;;12.77;;
10535;SDS011;5316;49.538;8.352;2024-01-10T04:11:08;23.67;;;13.20;;
10535;SDS011;5316;49.538;8.352;2024-01-10T04:13:38;23.20;;;12.97;;
10535;SDS011;5316;49.538;8.352;2024-01-10T04:16:08;24.87;;;13.47;;
10535;SDS011;5316;49.538;8.352;2024-01-10T04:18:34;22.47;;;13.83;;
10535;SDS011;5316;49.538;8.352;2024-01-10T04:21:02;23.30;;;13.23;;
10535;SDS011;5316;49.538;8.352;2024-01-10T04:23:33;26.13;;;13.77;;
10535;SDS011;5316;49.538;8.352;2024-01-10T04:26:00;25.57;;;14.37;;
10535;SDS011;5316;49.538;8.352;2024-01-10T04:28:30;23.30;;;13.57;;
10535;SDS011;5316;49.538;8.352;2024-01-10T04:31:00;23.30;;;13.63;;
10535;SDS011;5316;49.538;8.352;2024-01-10T04:33:27;28.40;;;15.13;;
10535;SDS011;5316;49.538;8.352;2024-01-10T04:36:10;29.00;;;15.37;;
10535;SDS011;5316;49.538;8.352;2024-01-10T04:38:37;27.97;;;15.67;;
10535;SDS011;5316;49.538;8.352;2024-01-10T04:41:07;26.13;;;14.63;;
10535;SDS011;5316;49.538;8.352;2024-01-10T04:43:51;24.03;;;13.60;;
10535;SDS011;5316;49.538;8.352;2024-01-10T04:46:21;28.23;;;15.03;;
10535;SDS011;5316;49.538;8.352;2024-01-10T04:48:51;25.87;;;14.50;;
10535;SDS011;5316;49.538;8.352;2024-01-10T04:51:29;33.63;;;15.73;;
10535;SDS011;5316;49.538;8.352;2024-01-10T04:54:10;26.63;;;15.13;;
10535;SDS011;5316;49.538;8.352;2024-01-10T04:57:10;33.13;;;16.50;;
10535;SDS011;5316;49.538;8.352;2024-01-10T04:59:37;30.30;;;16.13;;
10535;SDS011;5316;49.538;8.352;2024-01-10T05:02:04;27.17;;;15.07;;
10535;SDS011;5316;49.538;8.352;2024-01-10T05:04:49;29.67;;;15.80;;
10535;SDS011;5316;49.538;8.352;2024-01-10T05:10:02;25.83;;;14.90;;
10535;SDS011;5316;49.538;8.352;2024-01-10T05:12:37;30.43;;;15.13;;
10535;SDS011;5316;49.538;8.352;2024-01-10T05:15:07;26.97;;;15.40;;
10535;SDS011;5316;49.538;8.352;2024-01-10T05:17:37;28.93;;;16.03;;
10535;SDS011;5316;49.538;8.352;2024-01-10T05:20:04;28.73;;;16.07;;
10535;SDS011;5316;49.538;8.352;2024-01-10T05:22:34;31.20;;;16.03;;
10535;SDS011;5316;49.538;8.352;2024-01-10T05:25:01;28.87;;;15.47;;
10535;SDS011;5316;49.538;8.352;2024-01-10T05:27:37;31.23;;;16.00;;
10535;SDS011;5316;49.538;8.352;2024-01-10T05:30:05;31.47;;;16.53;;
10535;SDS011;5316;49.538;8.352;2024-01-10T05:32:41;30.53;;;16.90;;
10535;SDS011;5316;49.538;8.352;2024-01-10T05:35:09;32.30;;;16.30;;
10535;SDS011;5316;49.538;8.352;2024-01-10T05:38:07;33.70;;;16.53;;
10535;SDS011;5316;49.538;8.352;2024-01-10T05:40:33;34.47;;;17.67;;
10535;SDS011;5316;49.538;8.352;2024-01-10T05:43:00;33.73;;;16.67;;
10535;SDS011;5316;49.538;8.352;2024-01-10T05:45:27;30.07;;;16.20;;
10535;SDS011;5316;49.538;8.352;2024-01-10T05:47:55;29.30;;;15.57;;
10535;SDS011;5316;49.538;8.352;2024-01-10T05:50:22;33.00;;;16.60;;
10535;SDS011;5316;49.538;8.352;2024-01-10T05:52:49;30.27;;;16.50;;
10535;SDS011;5316;49.538;8.352;2024-01-10T05:55:25;31.67;;;16.27;;
10535;SDS011;5316;49.538;8.352;2024-01-10T05:57:52;32.97;;;18.30;;
10535;SDS011;5316;49.538;8.352;2024-01-10T06:00:23;43.63;;;23.77;;
10535;SDS011;5316;49.538;8.352;2024-01-10T06:02:51;38.13;;;20.27;;
10535;SDS011;5316;49.538;8.352;2024-01-10T06:05:18;34.03;;;20.00;;
10535;SDS011;5316;49.538;8.352;2024-01-10T06:07:45;35.30;;;19.17;;
10535;SDS011;5316;49.538;8.352;2024-01-10T06:10:12;33.37;;;17.40;;
10535;SDS011;5316;49.538;8.352;2024-01-10T06:12:40;32.77;;;16.57;;
10535;SDS011;5316;49.538;8.352;2024-01-10T06:15:07;32.50;;;17.53;;
10535;SDS011;5316;49.538;8.352;2024-01-10T06:17:35;31.87;;;18.10;;
10535;SDS011;5316;49.538;8.352;2024-01-10T06:20:02;37.77;;;18.00;;
10535;SDS011;5316;49.538;8.352;2024-01-10T06:22:37;32.10;;;16.53;;
10535;SDS011;5316;49.538;8.352;2024-01-10T06:25:04;30.40;;;15.57;;
10535;SDS011;5316;49.538;8.352;2024-01-10T06:27:33;29.10;;;16.37;;
10535;SDS011;5316;49.538;8.352;2024-01-10T06:30:02;32.70;;;16.47;;
10535;SDS011;5316;49.538;8.352;2024-01-10T06:32:32;27.80;;;15.90;;
10535;SDS011;5316;49.538;8.352;2024-01-10T06:35:00;28.10;;;16.37;;
10535;SDS011;5316;49.538;8.352;2024-01-10T06:37:27;30.77;;;17.03;;
10535;SDS011;5316;49.538;8.352;2024-01-10T06:39:54;30.03;;;16.10;;
10535;SDS011;5316;49.538;8.352;2024-01-10T06:42:21;31.00;;;15.80;;
10535;SDS011;5316;49.538;8.352;2024-01-10T06:44:48;30.77;;;16.67;;
10535;SDS011;5316;49.538;8.352;2024-01-10T06:47:16;28.73;;;15.93;;
10535;SDS011;5316;49.538;8.352;2024-01-10T06:49:43;31.47;;;16.53;;
10535;SDS011;5316;49.538;8.352;2024-01-10T06:52:10;37.83;;;16.60;;
10535;SDS011;5316;49.538;8.352;2024-01-10T06:54:37;30.80;;;15.93;;
10535;SDS011;5316;49.538;8.352;2024-01-10T06:57:04;34.13;;;16.80;;
10535;SDS011;5316;49.538;8.352;2024-01-10T06:59:31;29.17;;;16.63;;
10535;SDS011;5316;49.538;8.352;2024-01-10T07:01:57;29.03;;;15.17;;
10535;SDS011;5316;49.538;8.352;2024-01-10T07:04:27;30.30;;;16.60;;
10535;SDS011;5316;49.538;8.352;2024-01-10T07:06:54;29.63;;;15.70;;
10535;SDS011;5316;49.538;8.352;2024-01-10T07:09:21;32.67;;;16.60;;
10535;SDS011;5316;49.538;8.352;2024-01-10T07:11:48;27.77;;;15.43;;
10535;SDS011;5316;49.538;8.352;2024-01-10T07:14:17;32.47;;;16.40;;
10535;SDS011;5316;49.538;8.352;2024-01-10T07:16:43;32.23;;;16.40;;
10535;SDS011;5316;49.538;8.352;2024-01-10T07:19:11;30.27;;;16.77;;
10535;SDS011;5316;49.538;8.352;2024-01-10T07:21:39;36.23;;;16.30;;
10535;SDS011;5316;49.538;8.352;2024-01-10T07:24:07;32.73;;;15.20;;
10535;SDS011;5316;49.538;8.352;2024-01-10T07:26:35;29.63;;;16.03;;
10535;SDS011;5316;49.538;8.352;2024-01-10T07:29:02;25.10;;;15.10;;
10535;SDS011;5316;49.538;8.352;2024-01-10T07:31:33;31.50;;;14.73;;
10535;SDS011;5316;49.538;8.352;2024-01-10T07:34:00;28.43;;;15.27;;
10535;SDS011;5316;49.538;8.352;2024-01-10T07:36:27;28.80;;;16.87;;
10535;SDS011;5316;49.538;8.352;2024-01-10T07:38:56;27.70;;;14.73;;
10535;SDS011;5316;49.538;8.352;2024-01-10T07:41:23;27.33;;;14.60;;
10535;SDS011;5316;49.538;8.352;2024-01-10T07:43:50;25.10;;;15.43;;
10535;SDS011;5316;49.538;8.352;2024-01-10T07:46:17;30.67;;;16.13;;
10535;SDS011;5316;49.538;8.352;2024-01-10T07:48:43;25.83;;;14.67;;
10535;SDS011;5316;49.538;8.352;2024-01-10T07:51:10;29.17;;;15.77;;
10535;SDS011;5316;49.538;8.352;2024-01-10T07:53:37;30.67;;;15.80;;
10535;SDS011;5316;49.538;8.352;2024-01-10T07:56:05;30.07;;;16.43;;
10535;SDS011;5316;49.538;8.352;2024-01-10T07:58:32;29.03;;;16.43;;
10535;SDS011;5316;49.538;8.352;2024-01-10T08:00:59;33.43;;;16.27;;
10535;SDS011;5316;49.538;8.352;2024-01-10T08:03:25;28.57;;;15.60;;
10535;SDS011;5316;49.538;8.352;2024-01-10T08:05:52;26.83;;;15.03;;
10535;SDS011;5316;49.538;8.352;2024-01-10T08:08:19;28.73;;;15.53;;
10535;SDS011;5316;49.538;8.352;2024-01-10T08:10:45;27.97;;;15.17;;
10535;SDS011;5316;49.538;8.352;2024-01-10T08:13:13;25.10;;;14.83;;
10535;SDS011;5316;49.538;8.352;2024-01-10T08:15:40;31.63;;;15.10;;
10535;SDS011;5316;49.538;8.352;2024-01-10T08:18:08;29.97;;;14.80;;
10535;SDS011;5316;49.538;8.352;2024-01-10T08:20:34;23.77;;;14.67;;
10535;SDS011;5316;49.538;8.352;2024-01-10T08:23:01;27.37;;;15.03;;
10535;SDS011;5316;49.538;8.352;2024-01-10T08:25:28;26.73;;;14.97;;
10535;SDS011;5316;49.538;8.352;2024-01-10T08:27:54;24.90;;;14.17;;
10535;SDS011;5316;49.538;8.352;2024-01-10T08:30:23;27.30;;;13.87;;
10535;SDS011;5316;49.538;8.352;2024-01-10T08:32:50;27.37;;;14.37;;
10535;SDS011;5316;49.538;8.352;2024-01-10T08:35:18;24.63;;;14.63;;
10535;SDS011;5316;49.538;8.352;2024-01-10T08:37:46;23.83;;;13.93;;
10535;SDS011;5316;49.538;8.352;2024-01-10T08:40:13;28.03;;;13.80;;
10535;SDS011;5316;49.538;8.352;2024-01-10T08:42:41;26.00;;;13.47;;
10535;SDS011;5316;49.538;8.352;2024-01-10T08:45:08;22.97;;;13.13;;
10535;SDS011;5316;49.538;8.352;2024-01-10T08:47:37;27.10;;;14.60;;
10535;SDS011;5316;49.538;8.352;2024-01-10T08:50:05;27.60;;;14.37;;
10535;SDS011;5316;49.538;8.352;2024-01-10T08:52:33;27.43;;;15.90;;
10535;SDS011;5316;49.538;8.352;2024-01-10T08:55:02;25.93;;;14.57;;
10535;SDS011;5316;49.538;8.352;2024-01-10T08:57:30;23.73;;;14.43;;
10535;SDS011;5316;49.538;8.352;2024-01-10T08:59:57;24.80;;;13.67;;
10535;SDS011;5316;49.538;8.352;2024-01-10T09:02:23;28.40;;;14.37;;
10535;SDS011;5316;49.538;8.352;2024-01-10T09:04:53;23.27;;;13.87;;
10535;SDS011;5316;49.538;8.352;2024-01-10T09:07:20;25.83;;;14.37;;
10535;SDS011;5316;49.538;8.352;2024-01-10T09:09:47;26.37;;;14.07;;
10535;SDS011;5316;49.538;8.352;2024-01-10T09:12:13;26.00;;;14.50;;
10535;SDS011;5316;49.538;8.352;2024-01-10T09:14:40;25.50;;;14.40;;
10535;SDS011;5316;49.538;8.352;2024-01-10T09:17:07;23.27;;;13.37;;
10535;SDS011;5316;49.538;8.352;2024-01-10T09:19:33;22.40;;;14.00;;
10535;SDS011;5316;49.538;8.352;2024-01-10T09:22:01;27.73;;;14.27;;
10535;SDS011;5316;49.538;8.352;2024-01-10T09:24:28;25.63;;;14.17;;
10535;SDS011;5316;49.538;8.352;2024-01-10T09:26:54;27.00;;;14.50;;
10535;SDS011;5316;49.538;8.352;2024-01-10T09:32:40;32.23;;;17.37;;
10535;SDS011;5316;49.538;8.352;2024-01-10T09:35:07;36.90;;;18.00;;
10535;SDS011;5316;49.538;8.352;2024-01-10T09:37:35;24.63;;;14.53;;
10535;SDS011;5316;49.538;8.352;2024-01-10T09:42:35;28.03;;;14.47;;
10535;SDS011;5316;49.538;8.352;2024-01-10T09:45:03;23.23;;;13.20;;
10535;SDS011;5316;49.538;8.352;2024-01-10T09:47:31;26.37;;;16.23;;
10535;SDS011;5316;49.538;8.352;2024-01-10T09:49:58;31.57;;;18.60;;
10535;SDS011;5316;49.538;8.352;2024-01-10T09:52:27;24.10;;;13.53;;
10535;SDS011;5316;49.538;8.352;2024-01-10T09:54:56;22.10;;;13.20;;
10535;SDS011;5316;49.538;8.352;2024-01-10T09:57:23;24.40;;;13.83;;
10535;SDS011;5316;49.538;8.352;2024-01-10T09:59:50;25.20;;;12.40;;
10535;SDS011;5316;49.538;8.352;2024-01-10T10:02:17;21.73;;;13.33;;
10535;SDS011;5316;49.538;8.352;2024-01-10T10:04:46;23.70;;;12.20;;
10535;SDS011;5316;49.538;8.352;2024-01-10T10:07:19;22.20;;;12.00;;
10535;SDS011;5316;49.538;8.352;2024-01-10T10:09:46;25.03;;;12.60;;
10535;SDS011;5316;49.538;8.352;2024-01-10T10:12:14;21.10;;;12.67;;
10535;SDS011;5316;49.538;8.352;2024-01-10T10:14:41;21.93;;;12.50;;
10535;SDS011;5316;49.538;8.352;2024-01-10T10:17:14;23.63;;;12.73;;
10535;SDS011;5316;49.538;8.352;2024-01-10T10:19:41;23.07;;;11.57;;
10535;SDS011;5316;49.538;8.352;2024-01-10T10:22:08;23.70;;;11.47;;
10535;SDS011;5316;49.538;8.352;2024-01-10T10:24:35;19.63;;;12.07;;
10535;SDS011;5316;49.538;8.352;2024-01-10T10:27:03;23.23;;;11.93;;
10535;SDS011;5316;49.538;8.352;2024-01-10T10:29:35;18.97;;;12.03;;
10535;SDS011;5316;49.538;8.352;2024-01-10T10:32:03;18.47;;;11.43;;
10535;SDS011;5316;49.538;8.352;2024-01-10T10:34:31;20.60;;;11.77;;
10535;SDS011;5316;49.538;8.352;2024-01-10T10:36:58;21.03;;;11.17;;
10535;SDS011;5316;49.538;8.352;2024-01-10T10:39:25;24.53;;;12.43;;
10535;SDS011;5316;49.538;8.352;2024-01-10T10:41:51;19.43;;;10.60;;
10535;SDS011;5316;49.538;8.352;2024-01-10T10:44:19;20.17;;;12.17;;
10535;SDS011;5316;49.538;8.352;2024-01-10T10:46:52;21.23;;;11.80;;
10535;SDS011;5316;49.538;8.352;2024-01-10T10:49:19;20.33;;;11.07;;
10535;SDS011;5316;49.538;8.352;2024-01-10T10:51:52;18.87;;;11.37;;
10535;SDS011;5316;49.538;8.352;2024-01-10T10:54:19;25.23;;;14.73;;
10535;SDS011;5316;49.538;8.352;2024-01-10T10:56:48;19.57;;;11.07;;
10535;SDS011;5316;49.538;8.352;2024-01-10T10:59:16;17.30;;;11.47;;
10535;SDS011;5316;49.538;8.352;2024-01-10T11:01:45;18.73;;;10.77;;
10535;SDS011;5316;49.538;8.352;2024-01-10T11:04:14;26.97;;;15.43;;
10535;SDS011;5316;49.538;8.352;2024-01-10T11:06:42;17.70;;;10.37;;
10535;SDS011;5316;49.538;8.352;2024-01-10T11:09:09;21.57;;;11.23;;
10535;SDS011;5316;49.538;8.352;2024-01-10T11:11:41;16.83;;;11.13;;
10535;SDS011;5316;49.538;8.352;2024-01-10T11:14:19;18.77;;;11.00;;
10535;SDS011;5316;49.538;8.352;2024-01-10T11:17:11;19.03;;;11.20;;
10535;SDS011;5316;49.538;8.352;2024-01-10T11:19:58;17.63;;;10.87;;
10535;SDS011;5316;49.538;8.352;2024-01-10T11:22:41;22.00;;;12.00;;
10535;SDS011;5316;49.538;8.352;2024-01-10T11:25:16;17.67;;;10.73;;
10535;SDS011;5316;49.538;8.352;2024-01-10T11:27:44;20.33;;;11.17;;
10535;SDS011;5316;49.538;8.352;2024-01-10T11:30:12;17.47;;;11.10;;
10535;SDS011;5316;49.538;8.352;2024-01-10T11:32:39;18.03;;;11.23;;
10535;SDS011;5316;49.538;8.352;2024-01-10T11:35:15;18.80;;;12.00;;
10535;SDS011;5316;49.538;8.352;2024-01-10T11:37:45;20.67;;;12.47;;
10535;SDS011;5316;49.538;8.352;2024-01-10T11:40:14;23.10;;;11.70;;
10535;SDS011;5316;49.538;8.352;2024-01-10T11:42:42;19.63;;;10.90;;
10535;SDS011;5316;49.538;8.352;2024-01-10T11:45:09;17.63;;;11.73;;
10535;SDS011;5316;49.538;8.352;2024-01-10T11:47:37;17.27;;;10.93;;
10535;SDS011;5316;49.538;8.352;2024-01-10T11:50:06;19.73;;;11.80;;
10535;SDS011;5316;49.538;8.352;2024-01-10T11:52:36;19.83;;;10.70;;
10535;SDS011;5316;49.538;8.352;2024-01-10T11:55:03;20.03;;;11.53;;
10535;SDS011;5316;49.538;8.352;2024-01-10T11:57:32;20.60;;;11.50;;
10535;SDS011;5316;49.538;8.352;2024-01-10T11:59:59;28.93;;;17.10;;
10535;SDS011;5316;49.538;8.352;2024-01-10T12:02:26;19.10;;;11.07;;
10535;SDS011;5316;49.538;8.352;2024-01-10T12:04:55;18.00;;;10.90;;
10535;SDS011;5316;49.538;8.352;2024-01-10T12:07:22;20.90;;;10.70;;
10535;SDS011;5316;49.538;8.352;2024-01-10T12:09:51;18.20;;;12.07;;
10535;SDS011;5316;49.538;8.352;2024-01-10T12:12:19;20.20;;;11.23;;
10535;SDS011;5316;49.538;8.352;2024-01-10T12:14:46;17.33;;;11.13;;
10535;SDS011;5316;49.538;8.352;2024-01-10T12:17:13;19.43;;;10.97;;
10535;SDS011;5316;49.538;8.352;2024-01-10T12:19:41;19.93;;;11.67;;
10535;SDS011;5316;49.538;8.352;2024-01-10T12:22:11;20.00;;;11.00;;
10535;SDS011;5316;49.538;8.352;2024-01-10T12:24:42;20.03;;;11.67;;
10535;SDS011;5316;49.538;8.352;2024-01-10T12:27:11;18.17;;;11.00;;
10535;SDS011;5316;49.538;8.352;2024-01-10T12:29:38;21.50;;;12.10;;
10535;SDS011;5316;49.538;8.352;2024-01-10T12:32:05;20.27;;;11.60;;
10535;SDS011;5316;49.538;8.352;2024-01-10T12:34:37;23.47;;;12.40;;
10535;SDS011;5316;49.538;8.352;2024-01-10T12:37:04;17.43;;;11.67;;
10535;SDS011;5316;49.538;8.352;2024-01-10T12:39:31;20.90;;;11.00;;
10535;SDS011;5316;49.538;8.352;2024-01-10T12:41:58;17.43;;;11.50;;
10535;SDS011;5316;49.538;8.352;2024-01-10T12:44:28;21.63;;;13.20;;
10535;SDS011;5316;49.538;8.352;2024-01-10T12:46:56;20.20;;;12.97;;
10535;SDS011;5316;49.538;8.352;2024-01-10T12:49:23;20.53;;;12.00;;
10535;SDS011;5316;49.538;8.352;2024-01-10T12:51:49;18.37;;;12.23;;
10535;SDS011;5316;49.538;8.352;2024-01-10T12:54:16;20.80;;;11.63;;
10535;SDS011;5316;49.538;8.352;2024-01-10T12:56:43;19.57;;;11.33;;
10535;SDS011;5316;49.538;8.352;2024-01-10T12:59:10;16.97;;;10.70;;
10535;SDS011;5316;49.538;8.352;2024-01-10T13:01:39;19.23;;;11.03;;
10535;SDS011;5316;49.538;8.352;2024-01-10T13:04:06;20.53;;;11.30;;
10535;SDS011;5316;49.538;8.352;2024-01-10T13:06:33;18.80;;;11.60;;
10535;SDS011;5316;49.538;8.352;2024-01-10T13:09:00;18.23;;;11.23;;
10535;SDS011;5316;49.538;8.352;2024-01-10T13:11:27;20.30;;;12.07;;
10535;SDS011;5316;49.538;8.352;2024-01-10T13:13:54;18.27;;;11.80;;
10535;SDS011;5316;49.538;8.352;2024-01-10T13:16:21;19.03;;;12.10;;
10535;SDS011;5316;49.538;8.352;2024-01-10T13:18:50;18.70;;;11.13;;
10535;SDS011;5316;49.538;8.352;2024-01-10T13:21:18;22.57;;;11.43;;
10535;SDS011;5316;49.538;8.352;2024-01-10T13:23:45;20.30;;;11.80;;
10535;SDS011;5316;49.538;8.352;2024-01-10T13:26:11;19.27;;;12.27;;
10535;SDS011;5316;49.538;8.352;2024-01-10T13:28:38;19.97;;;12.27;;
10535;SDS011;5316;49.538;8.352;2024-01-10T13:31:05;18.67;;;11.97;;
10535;SDS011;5316;49.538;8.352;2024-01-10T13:33:32;23.00;;;11.80;;
10535;SDS011;5316;49.538;8.352;2024-01-10T13:36:00;17.97;;;11.47;;
10535;SDS011;5316;49.538;8.352;2024-01-10T13:38:27;21.23;;;12.40;;
10535;SDS011;5316;49.538;8.352;2024-01-10T13:40:54;19.73;;;11.73;;
10535;SDS011;5316;49.538;8.352;2024-01-10T13:43:21;21.40;;;12.43;;
10535;SDS011;5316;49.538;8.352;2024-01-10T13:45:47;20.90;;;12.67;;
10535;SDS011;5316;49.538;8.352;2024-01-10T13:48:14;18.40;;;11.53;;
10535;SDS011;5316;49.538;8.352;2024-01-10T13:50:42;20.53;;;11.57;;
10535;SDS011;5316;49.538;8.352;2024-01-10T13:53:10;20.40;;;11.73;;
10535;SDS011;5316;49.538;8.352;2024-01-10T13:55:38;21.80;;;12.13;;
10535;SDS011;5316;49.538;8.352;2024-01-10T13:58:04;20.17;;;11.57;;
10535;SDS011;5316;49.538;8.352;2024-01-10T14:00:32;19.03;;;12.00;;
10535;SDS011;5316;49.538;8.352;2024-01-10T14:02:59;17.97;;;11.90;;
10535;SDS011;5316;49.538;8.352;2024-01-10T14:05:26;18.07;;;11.60;;
10535;SDS011;5316;49.538;8.352;2024-01-10T14:07:53;17.03;;;11.33;;
10535;SDS011;5316;49.538;8.352;2024-01-10T14:10:21;18.37;;;11.87;;
10535;SDS011;5316;49.538;8.352;2024-01-10T14:12:49;18.37;;;11.63;;
10535;SDS011;5316;49.538;8.352;2024-01-10T14:15:15;16.90;;;11.73;;
10535;SDS011;5316;49.538;8.352;2024-01-10T14:17:42;19.37;;;12.33;;
10535;SDS011;5316;49.538;8.352;2024-01-10T14:20:09;18.60;;;12.13;;
10535;SDS011;5316;49.538;8.352;2024-01-10T14:22:38;19.73;;;11.83;;
10535;SDS011;5316;49.538;8.352;2024-01-10T14:25:06;19.03;;;12.00;;
10535;SDS011;5316;49.538;8.352;2024-01-10T14:27:35;20.43;;;11.97;;
10535;SDS011;5316;49.538;8.352;2024-01-10T14:30:04;17.70;;;11.27;;
10535;SDS011;5316;49.538;8.352;2024-01-10T14:32:33;22.23;;;12.90;;
10535;SDS011;5316;49.538;8.352;2024-01-10T14:35:00;21.27;;;12.13;;
10535;SDS011;5316;49.538;8.352;2024-01-10T14:37:27;19.17;;;12.27;;
10535;SDS011;5316;49.538;8.352;2024-01-10T14:39:54;17.40;;;11.83;;
10535;SDS011;5316;49.538;8.352;2024-01-10T14:42:20;21.10;;;12.73;;
10535;SDS011;5316;49.538;8.352;2024-01-10T14:44:48;22.13;;;13.60;;
10535;SDS011;5316;49.538;8.352;2024-01-10T14:47:15;22.40;;;13.53;;
10535;SDS011;5316;49.538;8.352;2024-01-10T14:49:42;21.27;;;12.40;;
10535;SDS011;5316;49.538;8.352;2024-01-10T14:52:08;20.47;;;12.90;;
10535;SDS011;5316;49.538;8.352;2024-01-10T14:54:37;20.93;;;12.30;;
10535;SDS011;5316;49.538;8.352;2024-01-10T14:57:04;17.73;;;12.67;;
10535;SDS011;5316;49.538;8.352;2024-01-10T14:59:31;18.87;;;12.53;;
10535;SDS011;5316;49.538;8.352;2024-01-10T15:01:59;19.27;;;13.43;;
10535;SDS011;5316;49.538;8.352;2024-01-10T15:04:25;20.73;;;11.73;;
10535;SDS011;5316;49.538;8.352;2024-01-10T15:06:53;19.67;;;12.00;;
10535;SDS011;5316;49.538;8.352;2024-01-10T15:09:22;21.10;;;12.70;;
10535;SDS011;5316;49.538;8.352;2024-01-10T15:11:48;22.13;;;12.80;;
10535;SDS011;5316;49.538;8.352;2024-01-10T15:14:15;20.27;;;12.47;;
10535;SDS011;5316;49.538;8.352;2024-01-10T15:16:42;23.67;;;13.00;;
10535;SDS011;5316;49.538;8.352;2024-01-10T15:19:10;24.30;;;14.17;;
10535;SDS011;5316;49.538;8.352;2024-01-10T15:21:37;24.97;;;15.23;;
10535;SDS011;5316;49.538;8.352;2024-01-10T15:24:05;28.17;;;13.97;;
10535;SDS011;5316;49.538;8.352;2024-01-10T15:26:32;24.90;;;14.30;;
10535;SDS011;5316;49.538;8.352;2024-01-10T15:28:58;20.43;;;12.90;;
10535;SDS011;5316;49.538;8.352;2024-01-10T15:31:25;21.63;;;13.20;;
10535;SDS011;5316;49.538;8.352;2024-01-10T15:33:54;23.27;;;13.17;;
10535;SDS011;5316;49.538;8.352;2024-01-10T15:36:22;22.43;;;12.63;;
10535;SDS011;5316;49.538;8.352;2024-01-10T15:38:49;25.83;;;14.33;;
10535;SDS011;5316;49.538;8.352;2024-01-10T15:41:16;22.20;;;12.90;;